createdAt,value
2023-03-29T00:00:42.008Z,5.79
2023-03-29T00:04:44.035Z,5.81
2023-03-29T00:08:46.171Z,5.82
2023-03-29T00:12:48.824Z,5.84
2023-03-29T00:16:51.302Z,5.87
2023-03-29T00:20:57.920Z,5.89
2023-03-29T00:24:59.705Z,5.95
2023-03-29T00:29:01.514Z,5.99
2023-03-29T00:33:04.045Z,6.01
2023-03-29T00:37:08.975Z,6.04
2023-03-29T00:41:12.000Z,6.06
2023-03-29T00:45:19.156Z,6.10
2023-03-29T00:49:21.367Z,6.14
2023-03-29T00:53:33.988Z,6.16
2023-03-29T00:57:37.755Z,6.19
2023-03-29T01:01:42.550Z,6.22
2023-03-29T01:05:49.107Z,6.21
2023-03-29T01:09:58.685Z,6.23
2023-03-29T01:14:04.706Z,6.22
2023-03-29T01:18:07.620Z,6.23
2023-03-29T01:22:09.454Z,6.24
2023-03-29T01:26:17.174Z,6.24
2023-03-29T01:31:17.325Z,6.26
2023-03-29T01:35:25.213Z,6.28
2023-03-29T01:39:27.451Z,6.30
2023-03-29T01:43:41.393Z,6.33
2023-03-29T01:48:10.484Z,6.36
2023-03-29T01:52:20.610Z,6.40
2023-03-29T01:56:26.679Z,6.45
2023-03-29T02:00:29.875Z,6.48
2023-03-29T02:04:49.197Z,6.49
2023-03-29T02:08:53.454Z,6.51
2023-03-29T02:12:56.198Z,6.53
2023-03-29T02:17:19.853Z,6.54
2023-03-29T02:21:37.575Z,6.55
2023-03-29T02:25:39.474Z,6.57
2023-03-29T02:29:42.436Z,6.57
2023-03-29T02:33:58.947Z,6.60
2023-03-29T02:38:04.952Z,6.61
2023-03-29T02:42:08.177Z,6.63
2023-03-29T02:46:11.578Z,6.63
2023-03-29T02:50:13.557Z,6.64
2023-03-29T02:54:19.659Z,6.66
2023-03-29T02:58:29.749Z,6.65
2023-03-29T03:02:31.764Z,6.67
2023-03-29T03:06:33.720Z,6.70
2023-03-29T03:10:36.280Z,6.71
2023-03-29T03:14:39.645Z,6.71
2023-03-29T03:18:41.576Z,6.72
2023-03-29T03:22:49.129Z,6.72
2023-03-29T03:26:51.124Z,6.73
2023-03-29T03:30:54.564Z,6.73
2023-03-29T03:35:22.955Z,6.76
2023-03-29T03:39:24.729Z,6.76
2023-03-29T03:43:27.329Z,6.78
2023-03-29T03:47:31.172Z,6.79
2023-03-29T03:51:46.553Z,6.80
2023-03-29T03:55:54.459Z,6.79
2023-03-29T03:59:59.427Z,6.82
2023-03-29T04:04:14.774Z,6.83
2023-03-29T04:08:28.069Z,6.83
2023-03-29T04:12:45.653Z,6.84
2023-03-29T04:16:47.702Z,6.84
2023-03-29T04:21:12.013Z,6.84
2023-03-29T04:25:14.162Z,6.86
2023-03-29T04:29:22.204Z,6.86
2023-03-29T04:33:31.983Z,6.85
2023-03-29T04:37:35.836Z,6.85
2023-03-29T04:41:38.010Z,6.85
2023-03-29T04:45:51.849Z,6.84
2023-03-29T04:50:16.276Z,6.86
2023-03-29T04:54:20.517Z,6.87
2023-03-29T04:58:38.549Z,6.90
2023-03-29T05:02:40.871Z,6.92
2023-03-29T05:06:42.868Z,6.94
2023-03-29T05:10:44.842Z,6.97
2023-03-29T05:14:48.287Z,6.99
2023-03-29T05:18:51.907Z,7.02
2023-03-29T05:22:55.123Z,7.04
2023-03-29T05:27:17.771Z,7.05
2023-03-29T05:31:32.802Z,7.07
2023-03-29T05:35:36.220Z,7.09
2023-03-29T05:39:41.768Z,7.09
2023-03-29T05:43:44.695Z,7.11
2023-03-29T05:47:46.807Z,7.12
2023-03-29T05:51:48.946Z,7.13
2023-03-29T05:55:51.660Z,7.16
2023-03-29T05:59:56.746Z,7.19
2023-03-29T06:04:00.982Z,7.20
2023-03-29T06:08:15.857Z,7.23
2023-03-29T06:12:30.301Z,7.24
2023-03-29T06:16:34.659Z,7.28
2023-03-29T06:20:36.581Z,7.32
2023-03-29T06:24:44.422Z,7.36
2023-03-29T06:28:57.619Z,7.38
2023-03-29T06:33:01.201Z,7.42
2023-03-29T06:37:26.990Z,7.46
2023-03-29T06:41:38.846Z,7.50
2023-03-29T06:45:40.947Z,7.56
2023-03-29T06:49:52.570Z,7.64
2023-03-29T06:54:05.611Z,7.69
2023-03-29T06:58:11.260Z,7.74
2023-03-29T07:02:14.455Z,7.79
2023-03-29T07:06:29.878Z,7.86
2023-03-29T07:10:38.537Z,7.90
2023-03-29T07:14:59.396Z,7.91
2023-03-29T07:19:22.939Z,7.96
2023-03-29T07:23:30.674Z,7.99
2023-03-29T07:27:32.802Z,8.04
2023-03-29T07:31:36.008Z,8.07
2023-03-29T07:36:01.218Z,8.11
2023-03-29T07:40:09.512Z,8.16
2023-03-29T07:44:35.816Z,8.22
2023-03-29T07:48:38.348Z,8.29
2023-03-29T07:52:43.661Z,8.36
2023-03-29T07:56:45.713Z,8.43
2023-03-29T08:00:49.295Z,8.52
2023-03-29T08:05:37.596Z,8.61
2023-03-29T08:09:45.771Z,8.72
2023-03-29T08:13:47.901Z,8.81
2023-03-29T08:18:01.874Z,8.91
2023-03-29T08:22:04.893Z,9.02
2023-03-29T08:26:33.336Z,9.13
2023-03-29T08:30:36.440Z,9.22
2023-03-29T08:34:39.412Z,9.30
2023-03-29T08:38:52.286Z,9.32
2023-03-29T08:43:32.194Z,9.39
2023-03-29T08:48:22.900Z,9.53
2023-03-29T08:52:43.460Z,9.65
2023-03-29T08:57:15.973Z,9.70
2023-03-29T09:01:23.465Z,9.76
2023-03-29T09:05:34.661Z,9.81
2023-03-29T09:09:57.347Z,9.85
2023-03-29T09:14:37.426Z,9.94
2023-03-29T09:18:58.353Z,10.04
2023-03-29T09:23:22.559Z,10.10
2023-03-29T09:28:10.989Z,10.09
2023-03-29T09:32:52.258Z,10.22
2023-03-29T09:36:59.744Z,10.33
2023-03-29T09:41:34.915Z,10.43
2023-03-29T09:45:39.515Z,10.53
2023-03-29T09:49:47.589Z,10.49
2023-03-29T09:53:49.858Z,10.43
2023-03-29T09:58:13.633Z,10.39
2023-03-29T10:02:21.507Z,10.38
2023-03-29T10:06:26.989Z,10.35
2023-03-29T10:10:35.219Z,10.32
2023-03-29T10:14:46.729Z,10.33
2023-03-29T10:18:50.463Z,10.39
2023-03-29T10:22:58.014Z,10.41
2023-03-29T10:27:07.084Z,10.46
2023-03-29T10:31:18.981Z,10.48
2023-03-29T10:35:29.565Z,10.50
2023-03-29T10:39:35.040Z,10.51
2023-03-29T10:43:43.222Z,10.51
2023-03-29T10:47:48.213Z,10.50
2023-03-29T10:51:52.325Z,10.49
2023-03-29T10:56:26.203Z,10.51
2023-03-29T11:00:57.844Z,10.54
2023-03-29T11:05:26.665Z,10.54
2023-03-29T11:09:43.505Z,10.57
2023-03-29T11:13:54.046Z,10.64
2023-03-29T11:18:19.743Z,10.70
2023-03-29T11:22:33.409Z,10.79
2023-03-29T11:26:41.135Z,10.87
2023-03-29T11:31:00.156Z,10.88
2023-03-29T11:35:07.274Z,10.83
2023-03-29T11:39:30.611Z,10.85
2023-03-29T11:43:38.191Z,10.88
2023-03-29T11:47:46.352Z,10.89
2023-03-29T11:51:59.732Z,10.87
2023-03-29T11:56:13.753Z,10.82
2023-03-29T12:00:15.921Z,10.79
2023-03-29T12:04:28.926Z,10.84
2023-03-29T12:08:35.708Z,10.89
2023-03-29T12:12:45.816Z,10.88
2023-03-29T12:16:53.129Z,10.92
2023-03-29T12:21:07.006Z,11.02
2023-03-29T12:25:18.466Z,11.09
2023-03-29T12:29:32.470Z,11.09
2023-03-29T12:34:03.713Z,11.12
2023-03-29T12:38:30.503Z,11.27
2023-03-29T12:43:15.719Z,11.38
2023-03-29T12:47:45.749Z,11.39
2023-03-29T12:51:47.955Z,11.50
2023-03-29T12:56:04.271Z,11.59
2023-03-29T13:00:45.430Z,11.65
2023-03-29T13:04:56.637Z,11.65
2023-03-29T13:09:19.365Z,11.63
2023-03-29T13:13:36.861Z,11.66
2023-03-29T13:18:06.462Z,11.72
2023-03-29T13:22:39.054Z,11.84
2023-03-29T13:26:42.864Z,11.94
2023-03-29T13:30:55.976Z,11.99
2023-03-29T13:35:22.704Z,12.03
2023-03-29T13:39:37.048Z,12.03
2023-03-29T13:43:42.290Z,12.04
2023-03-29T13:47:54.935Z,12.08
2023-03-29T13:52:24.698Z,12.12
2023-03-29T13:56:33.119Z,12.18
2023-03-29T14:00:42.244Z,12.27
2023-03-29T14:04:47.893Z,12.36
2023-03-29T14:08:51.768Z,12.45
2023-03-29T14:12:55.909Z,12.51
2023-03-29T14:16:57.992Z,12.60
2023-03-29T14:21:01.861Z,12.68
2023-03-29T14:25:17.627Z,12.75
2023-03-29T14:29:19.952Z,12.79
2023-03-29T14:33:39.976Z,12.83
2023-03-29T14:37:43.012Z,12.92
2023-03-29T14:41:57.170Z,13.04
2023-03-29T14:46:03.004Z,13.17
2023-03-29T14:50:06.376Z,13.24
2023-03-29T14:54:11.608Z,13.28
2023-03-29T14:58:36.485Z,13.32
2023-03-29T15:02:38.541Z,13.34
2023-03-29T15:06:43.808Z,13.33
2023-03-29T15:10:46.013Z,13.27
2023-03-29T15:14:51.989Z,13.23
2023-03-29T15:18:54.073Z,13.19
2023-03-29T15:23:14.613Z,13.14
2023-03-29T15:27:18.959Z,13.09
2023-03-29T15:31:24.656Z,13.06
2023-03-29T15:35:26.802Z,13.02
2023-03-29T15:39:29.724Z,12.98
2023-03-29T15:43:32.027Z,12.95
2023-03-29T15:47:34.230Z,12.92
2023-03-29T15:51:36.161Z,12.90
2023-03-29T15:55:44.801Z,12.91
2023-03-29T15:59:46.700Z,12.91
2023-03-29T16:03:48.591Z,12.95
2023-03-29T16:07:50.551Z,12.97
2023-03-29T16:11:52.443Z,12.97
2023-03-29T16:15:54.284Z,12.99
2023-03-29T16:19:56.085Z,12.99
2023-03-29T16:23:57.910Z,12.98
2023-03-29T16:27:59.710Z,12.95
2023-03-29T16:32:02.488Z,12.93
2023-03-29T16:36:05.800Z,12.89
2023-03-29T16:40:08.356Z,12.86
2023-03-29T16:44:16.064Z,12.85
2023-03-29T16:48:19.821Z,12.83
2023-03-29T16:52:21.640Z,12.85
2023-03-29T16:56:23.489Z,12.86
2023-03-29T17:00:25.391Z,12.86
2023-03-29T17:04:27.334Z,12.85
2023-03-29T17:08:29.377Z,12.83
2023-03-29T17:12:31.814Z,12.81
2023-03-29T17:16:33.775Z,12.78
2023-03-29T17:20:39.700Z,12.74
2023-03-29T17:24:41.633Z,12.69
2023-03-29T17:28:43.865Z,12.66
2023-03-29T17:32:45.942Z,12.63
2023-03-29T17:36:49.020Z,12.59
2023-03-29T17:40:54.798Z,12.52
2023-03-29T17:44:56.676Z,12.46
2023-03-29T17:49:00.520Z,12.41
2023-03-29T17:53:02.448Z,12.38
2023-03-29T17:57:04.609Z,12.34
2023-03-29T18:01:10.880Z,12.31
2023-03-29T18:05:13.238Z,12.27
2023-03-29T18:09:15.238Z,12.22
2023-03-29T18:13:17.116Z,12.18
2023-03-29T18:17:19.308Z,12.15
2023-03-29T18:21:21.157Z,12.10
2023-03-29T18:25:24.223Z,12.07
2023-03-29T18:29:26.115Z,12.04
2023-03-29T18:33:30.370Z,11.99
2023-03-29T18:37:32.152Z,11.95
2023-03-29T18:41:35.842Z,11.92
2023-03-29T18:45:37.795Z,11.89
2023-03-29T18:49:40.820Z,11.88
2023-03-29T18:53:44.506Z,11.86
2023-03-29T18:57:46.446Z,11.83
2023-03-29T19:01:48.630Z,11.83
2023-03-29T19:05:55.460Z,11.81
2023-03-29T19:09:57.299Z,11.79
2023-03-29T19:13:59.338Z,11.79
2023-03-29T19:18:01.237Z,11.80
2023-03-29T19:22:03.328Z,11.78
2023-03-29T19:26:06.271Z,11.76
2023-03-29T19:30:09.363Z,11.73
2023-03-29T19:34:11.460Z,11.70
2023-03-29T19:38:13.514Z,11.70
2023-03-29T19:42:15.453Z,11.70
2023-03-29T19:46:17.592Z,11.69
2023-03-29T19:50:19.438Z,11.72
2023-03-29T19:54:21.572Z,11.72
2023-03-29T19:58:23.432Z,11.72
2023-03-29T20:02:25.288Z,11.70
2023-03-29T20:06:27.181Z,11.68
2023-03-29T20:10:29.014Z,11.65
2023-03-29T20:14:31.106Z,11.68
2023-03-29T20:18:32.913Z,11.70
2023-03-29T20:22:34.748Z,11.72
2023-03-29T20:26:36.731Z,11.73
2023-03-29T20:30:41.224Z,11.72
2023-03-29T20:34:43.124Z,11.69
2023-03-29T20:38:45.735Z,11.67
2023-03-29T20:42:49.089Z,11.64
2023-03-29T20:47:08.292Z,11.62
2023-03-29T20:51:10.338Z,11.61
2023-03-29T20:55:13.239Z,11.59
2023-03-29T20:59:15.466Z,11.59
2023-03-29T21:03:17.981Z,11.56
2023-03-29T21:07:21.931Z,11.53
2023-03-29T21:11:23.747Z,11.52
2023-03-29T21:15:26.216Z,11.54
2023-03-29T21:19:28.370Z,11.57
2023-03-29T21:23:30.187Z,11.55
2023-03-29T21:27:32.013Z,11.53
2023-03-29T21:31:34.080Z,11.52
2023-03-29T21:35:36.246Z,11.48
2023-03-29T21:39:38.164Z,11.46
2023-03-29T21:43:42.458Z,11.47
2023-03-29T21:47:44.726Z,11.47
2023-03-29T21:51:46.705Z,11.50
2023-03-29T21:55:49.698Z,11.53
2023-03-29T21:59:51.632Z,11.55
2023-03-29T22:03:53.469Z,11.57
2023-03-29T22:07:58.839Z,11.57
2023-03-29T22:12:01.686Z,11.55
2023-03-29T22:16:04.594Z,11.57
2023-03-29T22:20:18.585Z,11.60
2023-03-29T22:24:20.451Z,11.65
2023-03-29T22:28:22.445Z,11.72
2023-03-29T22:32:24.771Z,11.75
2023-03-29T22:36:29.235Z,11.80
2023-03-29T22:40:33.383Z,11.82
2023-03-29T22:44:35.361Z,11.81
2023-03-29T22:48:37.391Z,11.80
2023-03-29T22:52:39.210Z,11.79
2023-03-29T22:56:41.458Z,11.83
2023-03-29T23:00:43.357Z,11.88
2023-03-29T23:04:45.764Z,11.93
2023-03-29T23:08:48.431Z,11.98
2023-03-29T23:12:50.288Z,12.07
2023-03-29T23:16:52.125Z,12.15
2023-03-29T23:20:55.795Z,12.23
2023-03-29T23:24:57.589Z,12.28
2023-03-29T23:28:59.500Z,12.33
2023-03-29T23:33:02.688Z,12.41
2023-03-29T23:37:04.773Z,12.47
2023-03-29T23:41:10.533Z,12.55
2023-03-29T23:45:15.808Z,12.60
2023-03-29T23:49:17.588Z,12.71
2023-03-29T23:53:21.148Z,12.83
2023-03-29T23:57:23.074Z,13.00
